createdAt,value
2018-11-03T00:01:15.136Z,99.90
2018-11-03T00:03:43.450Z,99.90
2018-11-03T00:06:11.737Z,99.90
2018-11-03T00:08:40.025Z,99.90
2018-11-03T00:11:08.350Z,99.90
2018-11-03T00:13:36.613Z,99.90
2018-11-03T00:16:05.415Z,99.90
2018-11-03T00:18:33.704Z,99.90
2018-11-03T00:21:02.027Z,99.90
2018-11-03T00:23:30.376Z,99.90
2018-11-03T00:25:58.679Z,99.90
2018-11-03T00:28:27.045Z,99.90
2018-11-03T00:30:55.322Z,99.90
2018-11-03T00:33:23.737Z,99.90
2018-11-03T00:35:52.044Z,99.90
2018-11-03T00:38:20.336Z,99.90
2018-11-03T00:40:48.711Z,99.90
2018-11-03T00:43:17.004Z,99.90
2018-11-03T00:45:45.417Z,99.90
2018-11-03T00:48:13.700Z,99.90
2018-11-03T00:50:42.081Z,99.90
2018-11-03T00:53:10.390Z,99.90
2018-11-03T00:55:38.691Z,99.90
2018-11-03T00:58:07.090Z,99.90
2018-11-03T01:00:35.388Z,99.90
2018-11-03T01:03:03.809Z,99.90
2018-11-03T01:05:32.099Z,99.90
2018-11-03T01:08:00.364Z,99.90
2018-11-03T01:10:28.671Z,99.90
2018-11-03T01:12:56.953Z,99.90
2018-11-03T01:15:25.352Z,99.90
2018-11-03T01:17:53.637Z,99.90
2018-11-03T01:20:21.983Z,99.90
2018-11-03T01:22:50.292Z,99.90
2018-11-03T01:25:18.596Z,99.90
2018-11-03T01:27:46.887Z,99.90
2018-11-03T01:30:16.295Z,99.90
2018-11-03T01:32:44.762Z,99.90
2018-11-03T01:35:13.029Z,99.90
2018-11-03T01:37:41.314Z,99.90
2018-11-03T01:40:11.149Z,99.90
2018-11-03T01:42:39.632Z,99.90
2018-11-03T01:45:08.040Z,99.90
2018-11-03T01:47:36.618Z,99.90
2018-11-03T01:50:06.909Z,99.90
2018-11-03T01:52:36.039Z,99.90
2018-11-03T01:55:04.825Z,99.90
2018-11-03T01:57:33.127Z,99.90
2018-11-03T02:00:01.433Z,99.90
2018-11-03T02:02:29.954Z,99.90
2018-11-03T02:04:58.339Z,99.90
2018-11-03T02:07:26.685Z,99.90
2018-11-03T02:09:54.991Z,99.90
2018-11-03T02:12:23.395Z,99.90
2018-11-03T02:14:51.748Z,99.90
2018-11-03T02:17:20.170Z,99.90
2018-11-03T02:19:48.463Z,99.90
2018-11-03T02:22:16.786Z,99.90
2018-11-03T02:24:45.135Z,99.90
2018-11-03T02:27:13.442Z,99.90
2018-11-03T02:29:41.821Z,99.90
2018-11-03T02:32:10.112Z,99.90
2018-11-03T02:34:38.555Z,99.90
2018-11-03T02:37:06.851Z,99.90
2018-11-03T02:39:35.151Z,99.90
2018-11-03T02:42:03.535Z,99.90
2018-11-03T02:44:31.818Z,99.90
2018-11-03T02:47:00.219Z,99.90
2018-11-03T02:49:28.514Z,99.90
2018-11-03T02:51:56.950Z,99.90
2018-11-03T02:54:25.284Z,99.90
2018-11-03T02:56:53.629Z,99.90
2018-11-03T02:59:21.962Z,99.90
2018-11-03T03:01:50.274Z,99.90
2018-11-03T03:04:18.603Z,99.90
2018-11-03T03:06:46.895Z,99.90
2018-11-03T03:09:15.190Z,99.90
2018-11-03T03:11:43.488Z,99.90
2018-11-03T03:14:11.757Z,99.90
2018-11-03T03:16:40.151Z,99.90
2018-11-03T03:19:08.452Z,99.90
2018-11-03T03:21:37.356Z,99.90
2018-11-03T03:24:05.670Z,99.90
2018-11-03T03:26:33.948Z,99.90
2018-11-03T03:29:02.380Z,99.90
2018-11-03T03:31:30.650Z,99.90
2018-11-03T03:33:59.060Z,99.90
2018-11-03T03:36:27.375Z,99.90
2018-11-03T03:38:55.724Z,99.90
2018-11-03T03:41:24.135Z,99.90
2018-11-03T03:43:52.373Z,99.90
2018-11-03T03:46:20.736Z,99.90
2018-11-03T03:48:48.997Z,99.90
2018-11-03T03:51:17.391Z,99.90
2018-11-03T03:53:45.682Z,99.90
2018-11-03T03:56:14.000Z,99.90
2018-11-03T03:58:42.276Z,99.90
2018-11-03T04:01:10.576Z,99.90
2018-11-03T04:03:38.997Z,99.90
2018-11-03T04:06:07.252Z,99.90
2018-11-03T04:08:35.653Z,99.90
2018-11-03T04:11:04.325Z,99.90
2018-11-03T04:13:32.600Z,99.90
2018-11-03T04:16:00.933Z,99.90
2018-11-03T04:18:29.247Z,99.90
2018-11-03T04:20:57.618Z,99.90
2018-11-03T04:23:26.423Z,99.90
2018-11-03T04:25:54.765Z,99.90
2018-11-03T04:28:23.044Z,99.90
2018-11-03T04:30:51.385Z,99.90
2018-11-03T04:33:19.712Z,99.90
2018-11-03T04:35:47.987Z,99.90
2018-11-03T04:38:16.248Z,99.90
2018-11-03T04:40:44.523Z,99.90
2018-11-03T04:43:12.795Z,99.90
2018-11-03T04:45:41.082Z,99.90
2018-11-03T04:48:09.351Z,99.90
2018-11-03T04:50:37.632Z,99.90
2018-11-03T04:53:05.963Z,99.90
2018-11-03T04:55:34.254Z,99.90
2018-11-03T04:58:02.559Z,99.90
2018-11-03T05:00:30.829Z,99.90
2018-11-03T05:02:59.112Z,99.90
2018-11-03T05:05:27.425Z,99.90
2018-11-03T05:07:55.674Z,99.90
2018-11-03T05:10:23.980Z,99.90
2018-11-03T05:12:52.246Z,99.90
2018-11-03T05:15:20.524Z,99.90
2018-11-03T05:17:48.855Z,99.90
2018-11-03T05:20:17.151Z,99.90
2018-11-03T05:22:45.436Z,99.90
2018-11-03T05:25:13.754Z,99.90
2018-11-03T05:27:42.047Z,99.90
2018-11-03T05:30:10.325Z,99.90
2018-11-03T05:32:38.621Z,99.90
2018-11-03T05:35:06.961Z,99.90
2018-11-03T05:37:35.235Z,99.90
2018-11-03T05:40:03.649Z,99.90
2018-11-03T05:42:31.985Z,99.90
2018-11-03T05:45:00.292Z,99.90
2018-11-03T05:47:28.616Z,99.90
2018-11-03T05:49:56.901Z,99.90
2018-11-03T05:52:25.199Z,99.90
2018-11-03T05:54:53.464Z,99.90
2018-11-03T05:57:21.752Z,99.90
2018-11-03T05:59:50.123Z,99.90
2018-11-03T06:02:18.333Z,99.90
2018-11-03T06:04:46.616Z,99.90
2018-11-03T06:07:14.928Z,99.90
2018-11-03T06:09:43.256Z,99.90
2018-11-03T06:12:11.525Z,99.90
2018-11-03T06:14:39.806Z,99.90
2018-11-03T06:17:08.089Z,99.90
2018-11-03T06:19:36.394Z,99.90
2018-11-03T06:22:04.868Z,99.90
2018-11-03T06:24:33.139Z,99.90
2018-11-03T06:27:01.460Z,99.90
2018-11-03T06:29:29.748Z,99.90
2018-11-03T06:31:58.007Z,99.90
2018-11-03T06:34:26.304Z,99.90
2018-11-03T06:36:54.571Z,99.90
2018-11-03T06:39:22.908Z,99.90
2018-11-03T06:41:51.217Z,99.90
2018-11-03T06:44:19.517Z,99.90
2018-11-03T06:46:47.912Z,99.90
2018-11-03T06:49:21.200Z,99.90
2018-11-03T06:51:50.679Z,99.90
2018-11-03T06:54:19.011Z,99.90
2018-11-03T06:56:47.284Z,99.90
2018-11-03T06:59:16.332Z,99.90
2018-11-03T07:01:44.647Z,99.90
2018-11-03T07:04:13.017Z,99.90
2018-11-03T07:06:41.306Z,99.90
2018-11-03T07:09:11.296Z,99.90
2018-11-03T07:11:40.034Z,99.90
2018-11-03T07:14:09.242Z,99.90
2018-11-03T07:16:37.696Z,99.90
2018-11-03T07:19:06.264Z,99.90
2018-11-03T07:21:34.881Z,99.90
2018-11-03T07:24:03.264Z,99.90
2018-11-03T07:26:31.579Z,99.90
2018-11-03T07:28:59.864Z,99.90
2018-11-03T07:31:28.171Z,99.90
2018-11-03T07:33:56.504Z,99.90
2018-11-03T07:36:24.790Z,99.90
2018-11-03T07:38:53.075Z,99.90
2018-11-03T07:41:21.571Z,99.90
2018-11-03T07:43:49.838Z,99.90
2018-11-03T07:46:18.129Z,99.90
2018-11-03T07:48:46.513Z,99.90
2018-11-03T07:51:14.845Z,99.90
2018-11-03T07:53:43.147Z,99.90
2018-11-03T07:56:11.423Z,99.90
2018-11-03T07:58:39.731Z,99.90
2018-11-03T08:01:08.045Z,99.90
2018-11-03T08:03:36.399Z,99.90
2018-11-03T08:06:04.776Z,99.90
2018-11-03T08:08:33.066Z,99.90
2018-11-03T08:11:01.683Z,99.90
2018-11-03T08:13:29.948Z,99.90
2018-11-03T08:15:58.397Z,99.90
2018-11-03T08:18:26.672Z,99.90
2018-11-03T08:20:54.978Z,99.90
2018-11-03T08:23:23.238Z,99.90
2018-11-03T08:25:51.539Z,99.90
2018-11-03T08:28:19.861Z,99.90
2018-11-03T08:30:48.165Z,99.90
2018-11-03T08:33:16.436Z,99.90
2018-11-03T08:35:44.771Z,99.90
2018-11-03T08:38:14.339Z,99.90
2018-11-03T08:40:42.624Z,99.90
2018-11-03T08:43:10.917Z,99.90
2018-11-03T08:45:39.227Z,99.90
2018-11-03T08:48:07.512Z,99.90
2018-11-03T08:50:35.801Z,99.90
2018-11-03T08:53:04.304Z,99.90
2018-11-03T08:55:32.564Z,99.90
2018-11-03T08:58:00.842Z,99.90
2018-11-03T09:00:29.163Z,99.90
2018-11-03T09:02:57.494Z,99.90
2018-11-03T09:05:25.735Z,99.90
2018-11-03T09:07:54.034Z,99.90
2018-11-03T09:10:22.333Z,99.90
2018-11-03T09:12:50.627Z,99.90
2018-11-03T09:15:19.077Z,99.90
2018-11-03T09:17:47.176Z,99.90
2018-11-03T09:20:15.474Z,99.90
2018-11-03T09:22:43.896Z,99.90
2018-11-03T09:25:13.450Z,99.90
2018-11-03T09:27:42.676Z,99.90
2018-11-03T09:30:16.403Z,99.90
2018-11-03T09:32:44.715Z,99.90
2018-11-03T09:35:14.034Z,99.90
2018-11-03T09:37:44.431Z,99.90
2018-11-03T09:40:14.193Z,99.90
2018-11-03T09:42:43.608Z,99.90
2018-11-03T09:45:12.388Z,99.90
2018-11-03T09:47:41.257Z,99.90
2018-11-03T09:50:10.942Z,99.90
2018-11-03T09:52:39.663Z,99.90
2018-11-03T09:55:10.095Z,99.90
2018-11-03T09:57:38.398Z,99.90
2018-11-03T10:00:09.318Z,99.90
2018-11-03T10:02:37.977Z,99.90
2018-11-03T10:05:06.963Z,99.90
2018-11-03T10:07:35.281Z,99.90
2018-11-03T10:10:03.638Z,99.90
2018-11-03T10:12:32.112Z,99.90
2018-11-03T10:15:00.388Z,99.90
2018-11-03T10:17:28.685Z,99.90
2018-11-03T10:19:56.984Z,99.90
2018-11-03T10:22:25.781Z,99.90
2018-11-03T10:24:54.066Z,99.90
2018-11-03T10:27:22.356Z,99.90
2018-11-03T10:29:50.655Z,99.90
2018-11-03T10:32:18.936Z,99.90
2018-11-03T10:34:47.279Z,99.90
2018-11-03T10:37:15.782Z,99.90
2018-11-03T10:39:44.081Z,99.90
2018-11-03T10:42:12.417Z,99.90
2018-11-03T10:44:40.707Z,99.90
2018-11-03T10:47:09.048Z,99.90
2018-11-03T10:49:41.598Z,99.90
2018-11-03T10:52:10.086Z,99.90
2018-11-03T10:54:38.632Z,99.90
2018-11-03T10:57:07.446Z,99.90
2018-11-03T10:59:35.770Z,99.90
2018-11-03T11:02:09.347Z,99.90
2018-11-03T11:04:43.210Z,99.90
2018-11-03T11:07:17.727Z,99.90
2018-11-03T11:09:51.566Z,99.90
2018-11-03T11:12:25.385Z,99.90
2018-11-03T11:14:53.681Z,99.90
2018-11-03T11:17:22.019Z,99.90
2018-11-03T11:19:50.313Z,99.90
2018-11-03T11:22:18.572Z,99.90
2018-11-03T11:24:47.175Z,99.90
2018-11-03T11:27:15.278Z,99.90
2018-11-03T11:29:43.556Z,99.90
2018-11-03T11:32:11.878Z,99.90
2018-11-03T11:34:40.197Z,99.90
2018-11-03T11:37:08.462Z,99.90
2018-11-03T11:39:36.810Z,99.90
2018-11-03T11:42:05.237Z,99.90
2018-11-03T11:44:32.831Z,99.90
2018-11-03T11:47:01.200Z,99.90
2018-11-03T11:49:29.534Z,99.90
2018-11-03T11:51:57.828Z,99.90
2018-11-03T11:54:26.134Z,99.90
2018-11-03T11:56:54.434Z,99.90
2018-11-03T11:59:22.706Z,99.90
2018-11-03T12:01:51.098Z,99.90
2018-11-03T12:04:19.400Z,99.90
2018-11-03T12:06:47.702Z,99.90
2018-11-03T12:09:16.018Z,99.90
2018-11-03T12:11:44.288Z,99.90
2018-11-03T12:14:12.595Z,99.90
2018-11-03T12:16:40.902Z,99.90
2018-11-03T12:19:09.165Z,99.90
2018-11-03T12:21:37.448Z,99.90
2018-11-03T12:24:06.045Z,99.90
2018-11-03T12:26:34.347Z,99.90
2018-11-03T12:29:02.608Z,99.90
2018-11-03T12:31:30.872Z,99.90
2018-11-03T12:33:59.176Z,97.80
2018-11-03T12:36:27.489Z,96.60
2018-11-03T12:38:55.763Z,97.30
2018-11-03T12:41:24.234Z,98.00
2018-11-03T12:43:52.562Z,96.70
2018-11-03T12:46:20.856Z,95.50
2018-11-03T12:48:49.173Z,94.60
2018-11-03T12:51:17.424Z,93.00
2018-11-03T12:53:45.720Z,92.50
2018-11-03T12:56:14.037Z,93.10
2018-11-03T12:58:42.308Z,92.70
2018-11-03T13:01:10.617Z,91.60
2018-11-03T13:03:38.914Z,90.00
2018-11-03T13:06:07.239Z,90.00
2018-11-03T13:08:35.547Z,90.00
2018-11-03T13:11:03.936Z,90.60
2018-11-03T13:13:32.185Z,87.30
2018-11-03T13:16:00.472Z,84.60
2018-11-03T13:18:28.818Z,80.50
2018-11-03T13:20:57.110Z,79.60
2018-11-03T13:23:25.425Z,79.20
2018-11-03T13:25:53.755Z,76.40
2018-11-03T13:28:22.074Z,76.50
2018-11-03T13:30:50.372Z,74.20
2018-11-03T13:33:18.663Z,74.80
2018-11-03T13:35:46.929Z,73.20
2018-11-03T13:38:14.512Z,72.00
2018-11-03T13:40:42.061Z,71.00
2018-11-03T13:43:09.629Z,67.00
2018-11-03T13:45:37.250Z,66.60
2018-11-03T13:48:05.097Z,64.80
2018-11-03T13:50:32.694Z,64.70
2018-11-03T13:53:00.266Z,66.30
2018-11-03T13:55:27.849Z,63.20
2018-11-03T13:57:55.414Z,62.80
2018-11-03T14:00:23.004Z,61.70
2018-11-03T14:02:50.569Z,60.90
2018-11-03T14:05:18.151Z,58.60
2018-11-03T14:07:45.750Z,58.30
2018-11-03T14:10:15.377Z,57.30
2018-11-03T14:12:43.750Z,57.60
2018-11-03T14:15:12.862Z,56.90
2018-11-03T14:17:40.407Z,57.00
2018-11-03T14:20:09.095Z,57.00
2018-11-03T14:22:36.673Z,56.50
2018-11-03T14:25:04.349Z,56.10
2018-11-03T14:27:31.998Z,56.20
2018-11-03T14:29:59.605Z,56.40
2018-11-03T14:32:27.170Z,54.90
2018-11-03T14:34:54.734Z,54.40
2018-11-03T14:37:22.362Z,54.00
2018-11-03T14:39:49.931Z,54.30
2018-11-03T14:42:17.506Z,54.90
2018-11-03T14:44:45.785Z,55.20
2018-11-03T14:47:14.781Z,56.10
2018-11-03T14:49:43.038Z,56.70
2018-11-03T14:52:11.413Z,57.90
2018-11-03T14:54:39.664Z,60.60
2018-11-03T14:57:07.936Z,62.70
2018-11-03T14:59:35.491Z,63.70
2018-11-03T15:02:03.853Z,64.00
2018-11-03T15:04:32.120Z,66.20
2018-11-03T15:07:00.348Z,68.40
2018-11-03T15:09:28.623Z,70.80
2018-11-03T15:11:56.896Z,72.50
2018-11-03T15:14:25.353Z,73.80
2018-11-03T15:16:53.501Z,75.80
2018-11-03T15:19:21.751Z,77.90
2018-11-03T15:21:50.040Z,82.20
2018-11-03T15:24:18.501Z,85.20
2018-11-03T15:26:46.043Z,90.00
2018-11-03T15:29:13.628Z,92.40
2018-11-03T15:31:41.179Z,95.00
2018-11-03T15:34:08.866Z,98.70
2018-11-03T15:36:36.411Z,99.90
2018-11-03T15:39:04.661Z,99.90
2018-11-03T15:41:32.256Z,99.90
2018-11-03T15:43:59.911Z,99.90
2018-11-03T15:46:27.492Z,99.90
2018-11-03T15:48:55.177Z,99.90
2018-11-03T15:51:22.719Z,99.90
2018-11-03T15:53:50.361Z,99.90
2018-11-03T15:56:17.945Z,99.90
2018-11-03T15:58:45.561Z,99.90
2018-11-03T16:01:13.129Z,99.90
2018-11-03T16:03:40.695Z,99.90
2018-11-03T16:06:08.273Z,99.90
2018-11-03T16:08:35.851Z,99.90
2018-11-03T16:11:03.483Z,99.90
2018-11-03T16:13:31.102Z,99.90
2018-11-03T16:15:58.676Z,99.90
2018-11-03T16:18:26.251Z,99.90
2018-11-03T16:20:53.868Z,99.90
2018-11-03T16:23:22.136Z,99.90
2018-11-03T16:25:50.445Z,99.90
2018-11-03T16:28:18.917Z,99.90
2018-11-03T16:30:47.278Z,99.90
2018-11-03T16:33:15.680Z,99.90
2018-11-03T16:35:44.056Z,99.90
2018-11-03T16:38:12.297Z,99.90
2018-11-03T16:40:40.578Z,99.90
2018-11-03T16:43:08.903Z,99.90
2018-11-03T16:45:37.327Z,99.90
2018-11-03T16:48:06.633Z,99.90
2018-11-03T16:50:34.947Z,99.90
2018-11-03T16:53:03.238Z,99.90
2018-11-03T16:55:31.590Z,99.90
2018-11-03T16:57:59.981Z,99.90
2018-11-03T17:00:28.311Z,99.90
2018-11-03T17:02:56.684Z,99.90
2018-11-03T17:05:24.959Z,99.90
2018-11-03T17:07:53.237Z,99.90
2018-11-03T17:10:21.641Z,99.90
2018-11-03T17:12:49.999Z,99.90
2018-11-03T17:15:18.299Z,99.90
2018-11-03T17:17:46.638Z,99.90
2018-11-03T17:20:15.024Z,99.90
2018-11-03T17:22:43.352Z,99.90
2018-11-03T17:25:12.447Z,99.90
2018-11-03T17:27:40.794Z,99.90
2018-11-03T17:30:10.955Z,99.90
2018-11-03T17:32:39.226Z,99.90
2018-11-03T17:35:07.608Z,99.90
2018-11-03T17:37:35.921Z,99.90
2018-11-03T17:40:04.560Z,99.90
2018-11-03T17:42:32.873Z,99.90
2018-11-03T17:45:01.176Z,99.90
2018-11-03T17:47:29.443Z,99.90
2018-11-03T17:49:57.770Z,99.90
2018-11-03T17:52:26.720Z,99.90
2018-11-03T17:54:55.166Z,99.90
2018-11-03T17:57:23.368Z,99.90
2018-11-03T17:59:52.208Z,99.90
2018-11-03T18:02:20.522Z,99.90
2018-11-03T18:04:48.802Z,99.90
2018-11-03T18:07:17.094Z,99.90
2018-11-03T18:09:45.417Z,99.90
2018-11-03T18:12:14.000Z,99.90
2018-11-03T18:14:42.251Z,99.90
2018-11-03T18:17:10.570Z,99.90
2018-11-03T18:19:38.864Z,99.90
2018-11-03T18:22:07.150Z,99.90
2018-11-03T18:24:35.442Z,99.90
2018-11-03T18:27:03.877Z,99.90
2018-11-03T18:29:32.206Z,99.90
2018-11-03T18:32:01.349Z,99.90
2018-11-03T18:34:29.647Z,99.90
2018-11-03T18:36:57.960Z,99.90
2018-11-03T18:39:26.321Z,99.90
2018-11-03T18:41:54.630Z,99.90
2018-11-03T18:44:22.913Z,99.90
2018-11-03T18:46:51.345Z,99.90
2018-11-03T18:49:19.529Z,99.90
2018-11-03T18:51:47.883Z,99.90
2018-11-03T18:54:16.145Z,99.90
2018-11-03T18:56:44.446Z,99.90
2018-11-03T18:59:12.798Z,99.90
2018-11-03T19:01:41.071Z,99.90
2018-11-03T19:04:09.395Z,99.90
2018-11-03T19:06:37.684Z,99.90
2018-11-03T19:09:07.304Z,99.90
2018-11-03T19:11:35.592Z,99.90
2018-11-03T19:14:03.914Z,99.90
2018-11-03T19:16:32.662Z,99.90
2018-11-03T19:19:00.951Z,99.90
2018-11-03T19:21:29.225Z,99.90
2018-11-03T19:23:57.552Z,99.90
2018-11-03T19:26:25.848Z,99.90
2018-11-03T19:28:54.143Z,99.90
2018-11-03T19:31:22.441Z,99.90
2018-11-03T19:33:50.673Z,99.90
2018-11-03T19:36:18.973Z,99.90
2018-11-03T19:38:47.224Z,99.90
2018-11-03T19:41:15.520Z,99.90
2018-11-03T19:43:43.817Z,99.90
2018-11-03T19:46:12.084Z,99.90
2018-11-03T19:48:40.342Z,99.90
2018-11-03T19:51:08.675Z,99.90
2018-11-03T19:53:36.948Z,99.90
2018-11-03T19:56:05.629Z,99.90
2018-11-03T19:58:33.904Z,99.90
2018-11-03T20:01:02.264Z,99.90
2018-11-03T20:03:30.562Z,99.90
2018-11-03T20:05:58.832Z,99.90
2018-11-03T20:08:27.116Z,99.90
2018-11-03T20:10:55.412Z,99.90
2018-11-03T20:13:23.723Z,99.90
2018-11-03T20:15:51.994Z,99.90
2018-11-03T20:18:20.285Z,99.90
2018-11-03T20:20:48.607Z,99.90
2018-11-03T20:23:16.917Z,99.90
2018-11-03T20:25:45.255Z,99.90
2018-11-03T20:28:13.551Z,99.90
2018-11-03T20:30:41.813Z,99.90
2018-11-03T20:33:10.107Z,99.90
2018-11-03T20:35:38.384Z,99.90
2018-11-03T20:38:06.859Z,99.90
2018-11-03T20:40:35.135Z,99.90
2018-11-03T20:43:03.440Z,99.90
2018-11-03T20:45:31.740Z,99.90
2018-11-03T20:48:00.033Z,99.90
2018-11-03T20:50:28.345Z,99.90
2018-11-03T20:52:56.618Z,99.90
2018-11-03T20:55:24.899Z,99.90
2018-11-03T20:57:53.192Z,99.90
2018-11-03T21:00:21.457Z,99.90
2018-11-03T21:02:49.760Z,99.90
2018-11-03T21:05:18.070Z,99.90
2018-11-03T21:07:46.335Z,99.90
2018-11-03T21:10:14.589Z,99.90
2018-11-03T21:12:42.838Z,99.90
2018-11-03T21:15:11.135Z,99.90
2018-11-03T21:17:39.439Z,99.90
2018-11-03T21:20:08.246Z,99.90
2018-11-03T21:22:36.529Z,99.90
2018-11-03T21:25:05.215Z,99.90
2018-11-03T21:27:33.456Z,99.90
2018-11-03T21:30:01.756Z,99.90
2018-11-03T21:32:30.050Z,99.90
2018-11-03T21:34:58.325Z,99.90
2018-11-03T21:37:26.577Z,99.90
2018-11-03T21:39:55.096Z,99.90
2018-11-03T21:42:23.396Z,99.90
2018-11-03T21:44:51.696Z,99.90
2018-11-03T21:47:19.980Z,99.90
2018-11-03T21:49:48.355Z,99.90
2018-11-03T21:52:16.678Z,99.90
2018-11-03T21:54:44.910Z,99.90
2018-11-03T21:57:13.173Z,99.90
2018-11-03T21:59:41.444Z,99.90
2018-11-03T22:02:09.725Z,99.90
2018-11-03T22:04:38.013Z,99.90
2018-11-03T22:07:06.434Z,99.90
2018-11-03T22:09:34.736Z,99.90
2018-11-03T22:12:03.017Z,99.90
2018-11-03T22:14:31.350Z,99.90
2018-11-03T22:16:59.624Z,99.90
2018-11-03T22:19:28.748Z,99.90
2018-11-03T22:21:57.060Z,99.90
2018-11-03T22:24:25.324Z,99.90
2018-11-03T22:26:53.624Z,99.90
2018-11-03T22:29:21.913Z,99.90
2018-11-03T22:31:50.182Z,99.90
2018-11-03T22:34:18.455Z,99.90
2018-11-03T22:36:46.726Z,99.90
2018-11-03T22:39:15.003Z,99.90
2018-11-03T22:41:43.301Z,99.90
2018-11-03T22:44:11.568Z,99.90
2018-11-03T22:46:42.820Z,99.90
2018-11-03T22:49:11.156Z,99.90
2018-11-03T22:51:39.472Z,99.90
2018-11-03T22:54:07.705Z,99.90
2018-11-03T22:56:35.972Z,99.90
2018-11-03T22:59:04.334Z,99.90
2018-11-03T23:01:32.767Z,99.90
2018-11-03T23:04:01.069Z,99.90
2018-11-03T23:06:29.331Z,99.90
2018-11-03T23:08:57.564Z,99.90
2018-11-03T23:11:25.869Z,99.90
2018-11-03T23:13:54.159Z,99.90
2018-11-03T23:16:22.405Z,99.90
2018-11-03T23:18:50.722Z,99.90
2018-11-03T23:21:18.988Z,99.90
2018-11-03T23:23:47.265Z,99.90
2018-11-03T23:26:15.580Z,99.90
2018-11-03T23:28:43.838Z,99.90
2018-11-03T23:31:12.131Z,99.90
2018-11-03T23:33:40.790Z,99.90
2018-11-03T23:36:09.071Z,99.90
2018-11-03T23:38:37.328Z,99.90
2018-11-03T23:41:05.828Z,99.90
2018-11-03T23:43:34.089Z,99.90
2018-11-03T23:46:02.357Z,99.90
2018-11-03T23:48:30.612Z,99.90
2018-11-03T23:50:58.893Z,99.90
2018-11-03T23:53:27.250Z,99.90
2018-11-03T23:55:55.481Z,99.90
2018-11-03T23:58:23.755Z,99.90
